This is the latest recevied weather packets stored in our database for station/object KE5WTH-14. If no packets are shown the sender has not sent any weather packets the latest 10 day(s).
| Time | Temp. | Humidity | Pressure | Rain* | Wind** | Luminosity | Snow |
|---|---|---|---|---|---|---|---|
| 1777475586 | 15° C | 84% | 1016.8 hPa | 0 mm | - | 83 W/m² | - |
| 1777475522 | 15° C | 84% | 1016.9 hPa | 0 mm | - | 83 W/m² | - |
| 1777475463 | 15° C | 84% | 1016.9 hPa | 0 mm | - | 84 W/m² | - |
| 1777475407 | 15° C | 84% | 1016.9 hPa | 0 mm | - | 84 W/m² | - |
| 1777475342 | 15° C | 84% | 1016.9 hPa | 0 mm | - | 86 W/m² | - |
| 1777475309 | 15° C | 84% | 1016.8 hPa | 0 mm | - | 86 W/m² | - |
| 1777475282 | 15° C | 84% | 1016.7 hPa | 0 mm | - | 74 W/m² | - |
| 1777475258 | 15° C | 84% | 1016.7 hPa | 0 mm | - | 74 W/m² | - |
| 1777475228 | 15° C | 84% | 1016.7 hPa | 0 mm | - | 74 W/m² | - |
| 1777475042 | 15° C | 83% | 1016.6 hPa | 0 mm | - | 69 W/m² | - |
| 1777474977 | 15° C | 83% | 1016.5 hPa | 0 mm | - | 69 W/m² | - |
| 1777474915 | 15° C | 83% | 1016.4 hPa | 0 mm | - | 69 W/m² | - |
| 1777474834 | 15° C | 83% | 1016.2 hPa | 0 mm | - | 84 W/m² | - |
| 1777474771 | 15° C | 83% | 1016.1 hPa | 0 mm | - | 97 W/m² | - |
| 1777474714 | 15° C | 82% | 1016 hPa | 0 mm | - | 111 W/m² | - |
| 1777474653 | 15° C | 82% | 1015.9 hPa | 0 mm | - | 125 W/m² | - |
| 1777474593 | 15° C | 82% | 1015.9 hPa | 0 mm | - | 132 W/m² | - |
| 1777474533 | 15° C | 82% | 1015.9 hPa | 0 mm | - | 132 W/m² | - |
| 1777474463 | 15° C | 82% | 1015.8 hPa | 0 mm | - | 132 W/m² | - |
| 1777474402 | 15° C | 82% | 1015.9 hPa | 0 mm | - | 120 W/m² | - |
| 1777474340 | 15° C | 82% | 1015.9 hPa | 0 mm | - | 107 W/m² | - |
| 1777474279 | 15° C | 82% | 1016.1 hPa | 0 mm | - | 95 W/m² | - |
| 1777474215 | 15° C | 82% | 1016.2 hPa | 0 mm | - | 86 W/m² | - |
| 1777474156 | 15° C | 82% | 1016.2 hPa | 0 mm | - | 83 W/m² | - |
| 1777474094 | 15° C | 82% | 1016.2 hPa | 0 mm | - | 88 W/m² | - |
* Rain latest hour (hover to see other rain measurements)
** Current wind speed in m/s (hover to see current wind gust speed)